ETHF/FRZ METAR and TAF weather

Enter ICAO airport designator
Station Type Date Time Source
ETHF METAR 2020/09/25 19:20 UTC NOAA

ETHF 251920Z 16003KT 9999 SCT040 BKN120 10/06 Q0998 BLU


Station Type Date Time Source
ETHF Decoded METAR 2020/09/25 19:20 UTC NOAA

Fritzlar, Germany (ETHF) 51-07N 009-17E 181M
Sep 25, 2020 - 03:20 PM EDT / 2020.09.25 1920 UTC
Wind: from the SSE (160 degrees) at 3 MPH (3 KT):0
Visibility: greater than 7 mile(s):0
Sky conditions: mostly cloudy
Temperature: 50 F (10 C)
Dew Point: 42 F (6 C)
Relative Humidity: 76%
Pressure (altimeter): 29.47 in. Hg (0998 hPa)
ob: ETHF 251920Z 16003KT 9999 SCT040 BKN120 10/06 Q0998 BLU
cycle: 19

Station Type Date Time Source
ETHF TAF 2020/09/07 12:21 UTC NOAA

TAF ETHF 071611Z 0712/0802 VRB02KT 9999 NSW FEW030 PROB30 0723/0802 VRB01KT 5000 MIFG SKC

Example: see airport list